Meteo

Meteo


Dettagli e Storico

Webcam

Webcam in aeroporto – Aggiornata ogni minuto
Osservatorio Meteorologico Cocomaro di Cona – Ferrara

NOAA IMAGE

NOAA

Windy

METAR

Aviation Digital Data Service (ADDS)

Output produced by METARs form (0932 UTC 03 August 2020)
found at http://www.aviationweather.gov/metar/data/
 
METAR text: LIPF 030855Z 00000KT 9999 SCT070 23/20 Q1007 RMK OVC BKN100 VIS MIN 9999
Conditions at: LIPF (FERRARA (AUT) , IT) observed 0855 UTC 03 August 2020
Temperature: 23.0°C (73°F)
Dewpoint: 20.0°C (68°F) [RH = 83%]
Pressure (altimeter): 29.73 inches Hg (1007.0 mb)
Winds: calm
Visibility: 6 or more miles (10+ km)
Ceiling: at least 12,000 feet AGL
Clouds: scattered clouds at 7000 feet AGL
Weather: no significant weather observed at this time

METAR text: LIPE 030920Z 08004KT 030V130 9999 BKN015 25/20 Q1007
Conditions at: LIPE (BOLOGNA/BORGO (A, IT) observed 0920 UTC 03 August 2020
Temperature: 25.0°C (77°F)
Dewpoint: 20.0°C (68°F) [RH = 74%]
Pressure (altimeter): 29.73 inches Hg (1007.0 mb)
Winds: from the E (80 degrees) at 5 MPH (4 knots; 2.1 m/s)
Visibility: 6 or more miles (10+ km)
Ceiling: 1500 feet AGL
Clouds: broken clouds at 1500 feet AGL
Weather: no significant weather observed at this time

Forecast for: LIPE (BOLOGNA/BORGO (A, IT)
Text: TAF LIPE 030500Z 0306/0406 VRB05KT 9999 SCT050
Forecast period: 0600 UTC 03 August 2020 to 0600 UTC 04 August 2020
Forecast type: FROM: standard forecast or significant change
Winds: variable direction winds at 6 MPH (5 knots; 2.6 m/s)
Visibility: 6 or more miles 10+ km)
Ceiling: at least 12,000 feet AGL
Clouds: scattered clouds at 5000 feet AGL
Weather: no significant weather forecast for this period
Text: TEMPO 0306/0312 TSRA
Forecast period: 0600 to 1200 UTC 03 August 2020
Forecast type: TEMPORARY: The following changes expected for less than half the time period
Visibility: missing
Ceiling: unknown
Clouds: missing
Weather: TSRA  (rain associated with thunderstorm(s))

METAR text: LIPX 030920Z 11003KT 9999 FEW030 BKN070 24/20 Q1007
Conditions at: LIPX (VILLAFRANCA(CV/M, IT) observed 0920 UTC 03 August 2020
Temperature: 24.0°C (75°F)
Dewpoint: 20.0°C (68°F) [RH = 78%]
Pressure (altimeter): 29.73 inches Hg (1007.0 mb)
Winds: from the ESE (110 degrees) at 3 MPH (3 knots; 1.5 m/s)
Visibility: 6 or more miles (10+ km)
Ceiling: 7000 feet AGL
Clouds: few clouds at 3000 feet AGL
broken clouds at 7000 feet AGL
Weather: no significant weather observed at this time

Forecast for: LIPX (VILLAFRANCA(CV/M, IT)
Text: TAF LIPX 030800Z 0309/0318 VRB05KT 9999 SCT040
Forecast period: 0900 to 1800 UTC 03 August 2020
Forecast type: FROM: standard forecast or significant change
Winds: variable direction winds at 6 MPH (5 knots; 2.6 m/s)
Visibility: 6 or more miles 10+ km)
Ceiling: at least 12,000 feet AGL
Clouds: scattered clouds at 4000 feet AGL
Weather: no significant weather forecast for this period
Text: TEMPO 0310/0315 4000 TSRA
Forecast period: 1000 to 1500 UTC 03 August 2020
Forecast type: TEMPORARY: The following changes expected for less than half the time period
Visibility: 2.49 miles (4.01 km)
Ceiling: unknown
Clouds: missing
Weather: TSRA  (rain associated with thunderstorm(s))

METAR text: LIPZ 030920Z 06004KT 360V110 9999 FEW020 25/20 Q1007 NOSIG
Conditions at: LIPZ (VENEZIA/TESSERA , IT) observed 0920 UTC 03 August 2020
Temperature: 25.0°C (77°F)
Dewpoint: 20.0°C (68°F) [RH = 74%]
Pressure (altimeter): 29.73 inches Hg (1007.0 mb)
Winds: from the ENE (60 degrees) at 5 MPH (4 knots; 2.1 m/s)
Visibility: 6 or more miles (10+ km)
Ceiling: at least 12,000 feet AGL
Clouds: few clouds at 2000 feet AGL
Weather: no significant weather observed at this time

Forecast for: LIPZ (VENEZIA/TESSERA , IT)
Text: TAF LIPZ 030500Z 0306/0412 VRB05KT CAVOK
Forecast period: 0600 UTC 03 August 2020 to 1200 UTC 04 August 2020
Forecast type: FROM: standard forecast or significant change
Winds: variable direction winds at 6 MPH (5 knots; 2.6 m/s)
Visibility: 6 or more miles 10+ km)
Ceiling: unknown
Clouds: missing
Weather: NSW  (no significant weather)
Text: TEMPO 0306/0318 4000 TSRA
Forecast period: 0600 to 1800 UTC 03 August 2020
Forecast type: TEMPORARY: The following changes expected for less than half the time period
Visibility: 2.49 miles (4.01 km)
Ceiling: unknown
Clouds: missing
Weather: TSRA  (rain associated with thunderstorm(s))